Terminal Aerodrome Forecast
Issued by NWS

Current Version | Previous Version | Graphics & Text | Print | Product List | Glossary On
Versions: 1 2 3 4 5 6 7 8 9 10 11 12 13 14 15 16
480
FTUS41 KPBZ 241135
TAFHLG
TAF
KHLG 241135Z 2412/2512 23003KT 4SM BR SKC
      TEMPO 2412/2413 1SM BR SCT002
     FM241400 25004KT P6SM SKC=

USA.gov is the U.S. government's official web portal to all federal, state and local government web resources and services.